Time;durP1;ratioP1;P1;durP2;ratioP2;P2;SDS_P1;SDS_P2;PMS_P1;PMS_P2;Temp;Humidity;BMP_temperature;BMP_pressure;BME280_temperature;BME280_humidity;BME280_pressure;Samples;Min_cycle;Max_cycle;Signal;HPM_P1;HPM_P2
2022/09/03 00:05:06;;;;;;;40.40;6.85;;;;;;;24.27;53.92;100170.56;10291653;28;20053;-69
2022/09/03 00:10:13;;;;;;;42.70;7.13;;;;;;;23.68;53.62;100111.81;10297049;28;20525;-69
2022/09/03 00:15:18;;;;;;;42.10;6.15;;;;;;;24.04;53.60;100174.50;10296970;28;20529;-68
2022/09/03 00:20:48;;;;;;;29.58;4.97;;;;;;;24.09;53.60;100152.00;10295368;28;20438;-71
2022/09/03 00:25:54;;;;;;;26.77;4.55;;;;;;;23.59;53.26;100061.88;10297154;28;20039;-71
2022/09/03 00:31:15;;;;;;;23.10;4.20;;;;;;;23.76;53.43;100094.28;10297240;28;20149;-69
2022/09/03 00:36:22;;;;;;;26.13;4.40;;;;;;;23.77;53.07;100092.38;10296027;28;20137;-71
2022/09/03 00:41:40;;;;;;;30.95;5.00;;;;;;;23.87;52.76;100127.72;10295141;28;20039;-71
2022/09/03 00:47:19;;;;;;;39.17;5.88;;;;;;;23.93;52.54;100145.66;10296403;28;20402;-71
2022/09/03 00:52:44;;;;;;;36.38;4.47;;;;;;;23.77;52.14;100127.66;10211670;29;20047;-71
2022/09/03 00:58:36;;;;;;;30.15;4.45;;;;;;;23.90;51.78;100163.28;10282309;28;20117;-72
2022/09/03 01:03:50;;;;;;;25.30;4.63;;;;;;;23.77;51.80;100169.16;10278166;28;20153;-72
2022/09/03 01:09:30;;;;;;;28.45;4.60;;;;;;;23.74;52.41;100174.28;10295412;28;20039;-71
2022/09/03 01:14:51;;;;;;;28.17;5.05;;;;;;;23.68;52.27;100170.66;10294093;28;20070;-72
2022/09/03 01:20:28;;;;;;;25.05;4.95;;;;;;;23.65;52.47;100177.44;10295419;28;20517;-71
2022/09/03 01:25:53;;;;;;;28.75;4.70;;;;;;;23.65;52.20;100176.63;10294878;28;20049;-71
2022/09/03 01:31:19;;;;;;;27.95;4.38;;;;;;;23.47;52.00;100166.97;10294819;28;20146;-70
2022/09/03 01:36:27;;;;;;;22.35;4.18;;;;;;;23.49;52.03;100177.56;10295517;28;20055;-71
2022/09/03 01:42:15;;;;;;;26.55;3.90;;;;;;;23.45;52.14;100171.81;10294277;28;20105;-69
2022/09/03 01:47:32;;;;;;;26.50;4.50;;;;;;;23.24;52.09;100166.25;10289890;28;20043;-69
2022/09/03 01:52:43;;;;;;;28.00;4.20;;;;;;;23.13;52.16;100160.97;10294169;28;20043;-69
2022/09/03 01:57:58;;;;;;;22.13;4.35;;;;;;;23.20;52.24;100207.63;10293452;28;20042;-70
2022/09/03 02:03:04;;;;;;;28.30;3.83;;;;;;;23.22;51.54;100214.44;10293796;28;20039;-70
2022/09/03 02:08:08;;;;;;;52.63;6.47;;;;;;;22.31;52.14;100052.50;10292908;28;20042;-69
2022/09/03 02:13:11;;;;;;;31.35;4.50;;;;;;;;;;10292976;28;20125;-70
2022/09/03 02:18:20;;;;;;;28.77;4.28;;;;;;;22.94;51.29;100228.16;10292937;28;20035;-70
2022/09/03 02:23:22;;;;;;;40.33;4.80;;;;;;;22.69;51.15;100193.47;10290737;28;20462;-71
2022/09/03 02:28:24;;;;;;;45.35;4.95;;;;;;;22.63;51.27;100175.53;10292967;28;20078;-70
2022/09/03 02:33:26;;;;;;;38.13;4.55;;;;;;;22.90;51.18;100238.69;10291190;28;20057;-70
2022/09/03 02:38:27;;;;;;;128.85;18.50;;;;;;;22.50;51.80;100177.53;10292259;28;20050;-70
2022/09/03 02:43:37;;;;;;;58.70;10.55;;;;;;;22.92;52.32;100243.88;10292728;28;20046;-70
2022/09/03 02:48:38;;;;;;;35.85;6.05;;;;;;;22.37;51.98;100160.84;10291966;28;20039;-70
2022/09/03 02:53:39;;;;;;;41.55;5.45;;;;;;;22.48;51.63;100193.19;10292178;28;20046;-70
2022/09/03 02:58:40;;;;;;;37.40;5.38;;;;;;;22.64;51.84;100245.66;10291369;28;20049;-71
2022/09/03 03:03:41;;;;;;;42.55;5.18;;;;;;;22.48;51.79;100236.50;10291569;28;20406;-70
2022/09/03 03:08:43;;;;;;;40.88;4.80;;;;;;;22.92;51.47;100314.31;10289931;28;20047;-70
2022/09/03 03:13:45;;;;;;;50.25;5.43;;;;;;;22.58;51.56;100254.78;10290987;28;20050;-71
2022/09/03 03:18:46;;;;;;;45.00;5.78;;;;;;;23.07;51.32;100311.81;10296023;28;20047;-70
2022/09/03 03:23:47;;;;;;;100.63;9.15;;;;;;;23.15;51.51;100267.19;10299335;28;20043;-70
2022/09/03 03:28:49;;;;;;;56.63;6.40;;;;;;;23.42;50.99;100254.50;10298951;28;20055;-70
2022/09/03 03:33:55;;;;;;;74.53;10.43;;;;;;;23.36;50.70;100203.19;10299096;28;20047;-70
2022/09/03 03:38:58;;;;;;;53.25;7.00;;;;;;;23.68;49.86;100195.88;10298843;28;20407;-69
2022/09/03 03:44:04;;;;;;;77.95;7.78;;;;;;;23.95;47.96;100184.19;10298503;28;20066;-69
2022/09/03 03:49:07;;;;;;;60.00;6.53;;;;;;;24.54;47.37;100308.16;10297259;28;20130;-71
2022/09/03 03:54:08;;;;;;;72.60;7.30;;;;;;;25.06;46.61;100369.84;10298498;28;20043;-72
2022/09/03 03:59:09;;;;;;;82.53;7.85;;;;;;;25.31;45.84;100320.28;10298061;28;20043;-70
2022/09/03 04:04:09;;;;;;;81.63;8.68;;;;;;;25.54;44.97;100338.00;10297776;28;20113;-71
2022/09/03 04:09:10;;;;;;;85.95;8.13;;;;;;;25.54;44.60;100294.50;10297249;28;20046;-71
2022/09/03 04:14:11;;;;;;;65.57;8.40;;;;;;;26.27;43.06;100340.63;10296629;28;20438;-76
2022/09/03 04:19:12;;;;;;;93.22;8.52;;;;;;;26.51;42.85;100378.22;10297283;28;20057;-77
2022/09/03 04:24:13;;;;;;;62.10;8.52;;;;;;;26.44;41.99;100388.53;10296996;28;20514;-77
2022/09/03 04:29:14;;;;;;;80.60;7.88;;;;;;;26.09;40.97;100343.88;10295753;28;20062;-77
2022/09/03 04:34:15;;;;;;;68.25;7.18;;;;;;;26.25;40.37;100358.31;10296175;28;20050;-77
2022/09/03 04:39:15;;;;;;;57.88;6.60;;;;;;;25.83;40.29;100352.00;10296697;28;20047;-75
2022/09/03 04:44:16;;;;;;;64.93;6.90;;;;;;;25.51;40.50;100365.75;10296971;28;20054;-74
2022/09/03 04:49:17;;;;;;;77.35;7.18;;;;;;;25.62;40.51;100367.41;10296177;28;20050;-74
2022/09/03 04:54:18;;;;;;;107.88;9.25;;;;;;;25.50;40.91;100323.31;10295947;28;20047;-74
2022/09/03 04:59:18;;;;;;;91.20;8.90;;;;;;;25.34;40.16;100302.59;10295947;28;20066;-75
2022/09/03 05:04:19;;;;;;;75.78;7.68;;;;;;;25.54;39.90;100359.75;10296355;28;20049;-72
2022/09/03 05:09:20;;;;;;;55.13;6.25;;;;;;;25.54;40.26;100315.44;10296351;28;20035;-71
2022/09/03 05:14:21;;;;;;;30.13;4.60;;;;;;;25.77;40.00;100331.28;10294421;28;20495;-79
2022/09/03 05:19:22;;;;;;;47.28;5.55;;;;;;;26.04;40.05;100328.34;10293607;28;20073;-74
2022/09/03 05:24:23;;;;;;;42.65;5.72;;;;;;;25.96;39.48;100291.59;10294112;28;20082;-71
2022/09/03 05:29:24;;;;;;;47.92;5.35;;;;;;;26.11;38.88;100271.72;10294765;28;20098;-75
2022/09/03 05:34:26;;;;;;;68.78;5.40;;;;;;;26.26;38.89;100294.59;10294780;28;20138;-72
2022/09/03 05:39:27;;;;;;;43.83;5.22;;;;;;;25.68;38.92;100173.19;10294105;28;20410;-71
2022/09/03 05:44:29;;;;;;;60.67;6.63;;;;;;;26.25;38.76;100233.06;10293016;28;20133;-72
2022/09/03 05:49:30;;;;;;;65.30;7.22;;;;;;;26.30;38.96;100190.28;10293840;28;20041;-70
2022/09/03 05:54:31;;;;;;;57.63;5.82;;;;;;;26.66;39.20;100206.56;10293970;28;20094;-71
2022/09/03 05:59:32;;;;;;;56.83;6.85;;;;;;;27.00;39.05;100181.31;10293035;28;20129;-72
2022/09/03 06:04:33;;;;;;;69.30;6.93;;;;;;;27.12;39.09;100187.25;10292347;28;20129;-71
2022/09/03 06:09:33;;;;;;;51.42;6.03;;;;;;;27.33;38.35;100230.78;10291273;28;20047;-73
2022/09/03 06:14:34;;;;;;;42.70;5.80;;;;;;;27.39;38.60;100251.47;10271244;28;20047;-74
2022/09/03 06:19:35;;;;;;;68.45;6.88;;;;;;;27.61;38.36;100237.41;10275416;28;20076;-72
2022/09/03 06:24:36;;;;;;;53.35;6.55;;;;;;;27.68;38.05;100214.16;10290933;28;20043;-75
2022/09/03 06:29:38;;;;;;;70.50;7.28;;;;;;;28.03;38.15;100223.19;10292206;28;20058;-74
2022/09/03 06:34:39;;;;;;;62.67;7.80;;;;;;;28.26;37.34;100226.25;10292012;28;20094;-72
2022/09/03 06:39:40;;;;;;;86.60;8.00;;;;;;;28.22;37.41;100221.34;10292853;28;20526;-72
2022/09/03 06:44:44;;;;;;;65.45;7.80;;;;;;;28.32;37.67;100214.16;10291627;28;20129;-72
2022/09/03 06:49:44;;;;;;;58.03;6.82;;;;;;;28.71;37.62;100202.28;10291429;28;20573;-71
2022/09/03 06:54:45;;;;;;;47.72;5.57;;;;;;;28.76;37.21;100163.94;10289190;28;20051;-70
2022/09/03 06:59:48;;;;;;;49.25;6.57;;;;;;;28.71;37.23;100112.06;10291749;28;20057;-71
2022/09/03 07:04:49;;;;;;;58.15;5.82;;;;;;;29.16;37.10;100172.72;10290911;28;20039;-70
2022/09/03 07:09:50;;;;;;;48.00;6.30;;;;;;;28.75;37.46;100096.69;10291650;28;20047;-74
2022/09/03 07:14:50;;;;;;;59.55;7.43;;;;;;;29.64;37.36;100167.06;10291342;28;20070;-71
2022/09/03 07:19:51;;;;;;;49.72;6.45;;;;;;;29.84;36.46;100144.00;10290914;28;20463;-70
2022/09/03 07:24:52;;;;;;;65.70;7.18;;;;;;;29.96;36.22;100134.16;10291228;28;20157;-72
2022/09/03 07:29:53;;;;;;;56.85;7.00;;;;;;;30.23;36.33;100135.34;10290881;28;20062;-70
2022/09/03 07:34:53;;;;;;;57.67;6.80;;;;;;;30.20;36.74;100087.44;10290546;28;20054;-72
2022/09/03 07:39:54;;;;;;;55.13;6.30;;;;;;;30.50;35.87;100122.75;10291107;28;20121;-70
2022/09/03 07:44:55;;;;;;;61.67;7.35;;;;;;;30.74;36.58;100125.25;10290420;28;20059;-71
2022/09/03 07:49:56;;;;;;;58.63;7.15;;;;;;;30.76;35.70;100093.66;10290206;28;20073;-75
2022/09/03 07:54:58;;;;;;;36.53;6.53;;;;;;;31.14;35.63;100113.38;10289052;28;20074;-68
2022/09/03 07:59:59;;;;;;;49.97;6.97;;;;;;;31.45;35.20;100103.59;10290265;28;20078;-70
2022/09/03 08:04:59;;;;;;;42.50;6.35;;;;;;;31.53;34.92;100109.13;10293753;28;20073;-69
2022/09/03 08:10:00;;;;;;;32.28;6.43;;;;;;;31.02;35.96;100062.91;10297593;28;20038;-69
2022/09/03 08:15:01;;;;;;;50.38;7.57;;;;;;;30.86;36.45;100038.59;10296868;28;20051;-69
2022/09/03 08:20:03;;;;;;;50.97;6.13;;;;;;;31.28;36.52;100094.06;10297929;28;20035;-74
2022/09/03 08:25:04;;;;;;;38.75;5.75;;;;;;;31.68;35.75;100080.47;10298344;28;20046;-71
2022/09/03 08:30:10;;;;;;;50.90;5.72;;;;;;;31.98;35.77;100075.28;10296144;28;20099;-71
2022/09/03 08:35:11;;;;;;;47.72;6.72;;;;;;;32.06;35.84;100034.09;10296824;28;20049;-74
2022/09/03 08:40:12;;;;;;;56.92;6.25;;;;;;;32.49;35.37;100066.38;10296028;28;20043;-69
2022/09/03 08:45:18;;;;;;;35.28;5.45;;;;;;;32.38;35.06;100003.75;10295875;28;20494;-70
2022/09/03 08:50:22;;;;;;;32.53;5.95;;;;;;;32.78;36.41;100056.69;10296638;28;20130;-69
2022/09/03 08:55:28;;;;;;;28.58;5.78;;;;;;;32.55;35.34;99976.31;10296044;28;20097;-70
2022/09/03 09:00:44;;;;;;;133.80;10.95;;;;;;;33.13;34.49;99996.94;10295417;28;20046;-70
2022/09/03 09:05:59;;;;;;;61.47;7.38;;;;;;;33.48;35.48;99996.84;10295014;28;20097;-74
2022/09/03 09:11:15;;;;;;;30.33;6.65;;;;;;;33.78;35.09;100010.69;10293538;28;20053;-70
2022/09/03 09:16:31;;;;;;;36.33;6.22;;;;;;;33.84;35.16;99988.13;10294394;28;20507;-68
2022/09/03 09:21:44;;;;;;;34.85;5.85;;;;;;;34.05;34.89;99992.88;10294488;28;20039;-71
2022/09/03 09:26:45;;;;;;;36.75;6.07;;;;;;;34.00;34.62;99976.50;10294600;28;20054;-73
2022/09/03 09:31:48;;;;;;;29.35;5.85;;;;;;;34.18;34.41;99967.00;10293843;28;20063;-77
2022/09/03 09:36:54;;;;;;;39.13;6.25;;;;;;;33.93;34.58;99924.69;10292697;28;20495;-73
2022/09/03 09:42:10;;;;;;;45.03;7.28;;;;;;;34.33;34.68;99940.78;10280470;28;20043;-70
2022/09/03 09:47:30;;;;;;;39.78;7.18;;;;;;;34.58;34.53;99963.78;10294971;28;20047;-70
2022/09/03 09:52:31;;;;;;;33.22;5.20;;;;;;;34.76;34.42;99943.19;10293989;28;20484;-73
2022/09/03 09:57:32;;;;;;;34.45;6.38;;;;;;;34.91;34.37;99951.94;10291991;28;20134;-75
2022/09/03 10:02:34;;;;;;;37.83;6.05;;;;;;;34.92;34.47;99948.03;10293682;28;20098;-72
2022/09/03 10:07:35;;;;;;;45.42;6.25;;;;;;;35.14;34.27;99933.03;10293228;28;20052;-75
2022/09/03 10:12:41;;;;;;;52.78;6.10;;;;;;;35.24;34.32;99912.44;10292820;28;20409;-72
2022/09/03 10:17:47;;;;;;;28.80;6.22;;;;;;;35.31;34.76;99920.97;10290852;28;20077;-72
2022/09/03 10:22:58;;;;;;;29.83;6.28;;;;;;;35.20;34.78;99913.13;10288507;28;20043;-77
2022/09/03 10:28:00;;;;;;;26.13;6.03;;;;;;;35.33;35.17;99925.00;10290353;28;20506;-75
2022/09/03 10:33:15;;;;;;;47.78;6.38;;;;;;;35.48;35.59;99917.16;10289879;28;20043;-75
2022/09/03 10:38:44;;;;;;;50.17;6.78;;;;;;;35.43;36.26;99902.44;10267198;28;20525;-79
2022/09/03 10:44:09;;;;;;;33.83;5.95;;;;;;;35.54;36.81;99896.44;10288812;28;20106;-68
2022/09/03 10:49:22;;;;;;;30.48;6.40;;;;;;;35.54;36.65;99897.31;10288207;28;20045;-70
2022/09/03 10:54:35;;;;;;;50.20;7.00;;;;;;;35.65;36.69;99911.44;10273775;28;20086;-69
2022/09/03 11:00:03;;;;;;;24.00;5.35;;;;;;;35.53;37.44;99856.16;10283219;28;20059;-72
2022/09/03 11:05:38;;;;;;;29.25;5.97;;;;;;;36.08;36.59;99910.00;10269980;28;20039;-73
2022/09/03 11:10:51;;;;;;;18.55;5.75;;;;;;;36.09;36.37;99897.78;10268096;28;20514;-69
2022/09/03 11:16:01;;;;;;;37.03;6.07;;;;;;;35.72;36.43;99811.38;10267294;28;20042;-72
2022/09/03 11:21:09;;;;;;;28.25;5.30;;;;;;;35.93;36.07;99852.63;10274319;28;20419;-70
2022/09/03 11:26:14;;;;;;;24.42;5.15;;;;;;;35.54;36.57;99773.00;10272430;28;20038;-70
2022/09/03 11:31:22;;;;;;;28.48;5.25;;;;;;;36.08;36.72;99811.28;10280624;28;20085;-72
2022/09/03 11:36:36;;;;;;;16.38;5.07;;;;;;;36.06;35.92;99779.59;10275927;28;20066;-72
2022/09/03 11:41:37;;;;;;;30.02;5.45;;;;;;;35.89;36.65;99748.31;10283978;28;20038;-72
2022/09/03 11:46:39;;;;;;;29.63;5.82;;;;;;;35.37;37.27;99771.28;10275463;28;20042;-71
2022/09/03 11:51:43;;;;;;;52.95;7.80;;;;;;;35.29;36.98;99774.16;10279946;28;20059;-71
2022/09/03 11:56:44;;;;;;;49.80;6.93;;;;;;;35.69;36.58;99792.72;10273087;28;20043;-74
2022/09/03 12:01:45;;;;;;;36.95;6.13;;;;;;;35.97;36.59;99814.88;10288286;28;20069;-70
2022/09/03 12:07:12;;;;;;;30.08;5.85;;;;;;;35.75;36.96;99843.81;10280367;28;20051;-69
2022/09/03 12:12:40;;;;;;;26.05;5.68;;;;;;;35.41;37.65;99899.22;10265297;28;20129;-70
2022/09/03 12:18:18;;;;;;;34.25;5.97;;;;;;;34.79;38.33;99858.88;10275432;28;20047;-70
2022/09/03 12:23:27;;;;;;;32.10;6.20;;;;;;;34.67;39.61;99880.94;10274023;28;20442;-70
2022/09/03 12:28:29;;;;;;;48.60;7.53;;;;;;;34.80;39.38;99912.16;10274725;28;20047;-70
2022/09/03 12:33:31;;;;;;;77.32;8.70;;;;;;;34.84;39.33;99913.84;10260551;28;20095;-69
2022/09/03 12:38:33;;;;;;;39.28;6.28;;;;;;;34.96;38.49;99869.72;10295294;28;20050;-69
2022/09/03 12:43:34;;;;;;;98.17;64.77;;;;;;;35.44;38.14;99846.03;10297029;28;20495;-71
2022/09/03 12:48:35;;;;;;;49.58;19.38;;;;;;;35.67;37.84;99818.75;10296078;28;20043;-69
2022/09/03 12:53:36;;;;;;;81.55;50.17;;;;;;;35.38;37.76;99756.31;10295285;28;20038;-71
2022/09/03 12:58:43;;;;;;;332.10;287.05;;;;;;;35.44;38.63;99834.19;10295822;28;20523;-70
2022/09/03 13:03:56;;;;;;;58.60;35.58;;;;;;;34.83;38.63;99767.97;10294458;28;20049;-70
2022/09/03 13:09:03;;;;;;;403.00;290.90;;;;;;;34.96;38.97;99791.66;10294804;28;20053;-68
2022/09/03 13:14:10;;;;;;;41.45;23.88;;;;;;;34.54;38.88;99734.72;10294341;28;20459;-74
2022/09/03 13:19:47;;;;;;;95.00;65.43;;;;;;;34.71;39.14;99771.53;10295339;28;20515;-72
2022/09/03 13:25:14;;;;;;;447.05;400.10;;;;;;;34.68;39.00;99747.41;10294159;28;20495;-72
2022/09/03 13:30:19;;;;;;;114.85;64.13;;;;;;;34.54;39.18;99707.16;10294842;28;20150;-72
2022/09/03 13:35:38;;;;;;;169.52;136.50;;;;;;;34.28;38.85;99645.97;10292580;28;20097;-73
2022/09/03 13:41:24;;;;;;;152.70;81.78;;;;;;;34.56;39.23;99686.72;10292395;28;20039;-71
2022/09/03 13:46:37;;;;;;;553.25;362.20;;;;;;;34.37;39.27;99641.16;10293926;28;20399;-71
2022/09/03 13:52:02;;;;;;;215.52;129.82;;;;;;;34.73;38.86;99703.00;10293747;28;20053;-72
2022/09/03 13:57:08;;;;;;;78.38;28.00;;;;;;;34.71;39.23;99717.16;10293172;28;20553;-70
2022/09/03 14:02:22;;;;;;;43.63;8.30;;;;;;;34.86;38.99;99696.34;10291439;28;20092;-71
2022/09/03 14:07:34;;;;;;;46.05;19.05;;;;;;;34.89;39.11;99694.84;10292741;28;20070;-74
2022/09/03 14:12:41;;;;;;;24.05;8.15;;;;;;;34.83;39.02;99699.00;10293060;28;20039;-73
2022/09/03 14:18:09;;;;;;;31.48;9.00;;;;;;;34.78;39.41;99688.97;10293074;28;20046;-73
2022/09/03 14:23:31;;;;;;;40.28;8.93;;;;;;;34.38;40.62;99617.16;10291103;28;20414;-72
2022/09/03 14:28:39;;;;;;;55.92;11.05;;;;;;;34.58;41.30;99659.56;10291920;28;20055;-75
2022/09/03 14:34:06;;;;;;;25.40;6.32;;;;;;;34.49;41.35;99659.66;10291780;28;20058;-75
2022/09/03 14:39:19;;;;;;;36.70;6.47;;;;;;;34.36;41.15;99661.63;10292246;28;20117;-71
2022/09/03 14:44:51;;;;;;;26.40;7.47;;;;;;;34.27;41.73;99678.25;10291603;28;20042;-71
2022/09/03 14:50:10;;;;;;;25.60;6.10;;;;;;;33.90;41.96;99651.78;10291242;28;20045;-73
2022/09/03 14:55:34;;;;;;;37.30;7.13;;;;;;;33.50;42.29;99628.31;10291597;28;20047;-69
2022/09/03 15:00:34;;;;;;;58.95;7.80;;;;;;;33.76;42.40;99687.88;10270442;28;20046;-70
2022/09/03 15:06:13;;;;;;;37.13;6.95;;;;;;;33.66;42.26;99693.84;10290905;28;20503;-70
2022/09/03 15:11:21;;;;;;;30.23;6.38;;;;;;;33.46;42.79;99715.50;10291970;28;20046;-71
2022/09/03 15:16:31;;;;;;;28.42;6.68;;;;;;;32.94;44.10;99652.59;10297814;28;20049;-70
2022/09/03 15:22:02;;;;;;;47.60;10.25;;;;;;;33.09;44.88;99695.25;10298751;28;20141;-70
2022/09/03 15:27:19;;;;;;;42.63;7.68;;;;;;;32.76;45.57;99684.06;10299891;28;20443;-70
2022/09/03 15:32:45;;;;;;;42.28;7.20;;;;;;;32.74;45.84;99709.16;10299852;28;20063;-70
2022/09/03 15:37:53;;;;;;;32.50;6.25;;;;;;;32.47;45.80;99691.19;10299185;28;20039;-71
2022/09/03 15:43:20;;;;;;;24.30;6.40;;;;;;;31.92;46.23;99626.88;10298157;28;20043;-69
2022/09/03 15:48:38;;;;;;;35.72;6.63;;;;;;;32.23;46.16;99705.47;10298077;28;20039;-71
2022/09/03 15:53:50;;;;;;;24.13;7.55;;;;;;;32.13;47.09;99712.16;10298254;28;20093;-69
2022/09/03 15:59:15;;;;;;;38.47;6.70;;;;;;;31.98;47.95;99718.97;10298607;28;20042;-70
2022/09/03 16:04:21;;;;;;;32.53;6.15;;;;;;;31.84;47.28;99716.38;10297372;28;20042;-69
2022/09/03 16:10:04;;;;;;;35.85;6.53;;;;;;;31.74;47.75;99733.19;10296699;28;20034;-68
2022/09/03 16:15:08;;;;;;;28.63;6.70;;;;;;;31.58;48.16;99756.75;10296593;28;20510;-70
2022/09/03 16:20:24;;;;;;;36.50;7.07;;;;;;;31.46;48.70;99764.84;10297166;28;20478;-69
2022/09/03 16:25:34;;;;;;;26.13;6.45;;;;;;;31.33;49.05;99772.06;10283933;28;20611;-71
2022/09/03 16:30:57;;;;;;;36.33;7.50;;;;;;;31.03;49.46;99730.69;10288704;28;20515;-71
2022/09/03 16:36:10;;;;;;;34.47;6.85;;;;;;;31.06;49.37;99751.19;10280470;28;20061;-71
2022/09/03 16:41:32;;;;;;;40.85;7.57;;;;;;;30.81;49.59;99739.84;10270177;28;20412;-70
2022/09/03 16:46:49;;;;;;;30.30;6.05;;;;;;;30.81;49.40;99760.94;10276176;28;20121;-72
2022/09/03 16:52:08;;;;;;;22.83;5.80;;;;;;;30.60;48.82;99744.22;10270436;28;20094;-70
2022/09/03 16:57:37;;;;;;;30.95;6.20;;;;;;;30.55;49.62;99747.13;10277243;28;20035;-71
2022/09/03 17:02:54;;;;;;;32.60;6.75;;;;;;;30.37;51.11;99738.00;10266776;28;20419;-70
2022/09/03 17:08:13;;;;;;;30.92;6.05;;;;;;;29.70;52.77;99654.75;10269263;28;20035;-69
2022/09/03 17:13:51;;;;;;;30.17;6.15;;;;;;;29.94;53.72;99716.59;10265027;28;20095;-72
2022/09/03 17:19:11;;;;;;;20.25;5.32;;;;;;;29.78;54.42;99729.88;10280515;28;20139;-70
2022/09/03 17:24:36;;;;;;;20.77;5.47;;;;;;;29.59;55.28;99730.03;10258413;28;20066;-70
2022/09/03 17:30:00;;;;;;;22.38;6.32;;;;;;;28.57;55.37;99592.78;10273295;28;20067;-71
2022/09/03 17:35:09;;;;;;;24.27;6.13;;;;;;;29.23;56.00;99724.56;10246320;28;20061;-71
2022/09/03 17:40:20;;;;;;;24.38;6.10;;;;;;;29.13;55.86;99718.16;10282819;28;20102;-69
2022/09/03 17:45:41;;;;;;;26.92;6.70;;;;;;;28.98;56.31;99721.19;10275109;28;20430;-69
2022/09/03 17:50:56;;;;;;;22.75;6.32;;;;;;;28.94;56.15;99720.22;10271609;28;20187;-69
2022/09/03 17:56:01;;;;;;;31.33;6.88;;;;;;;28.76;56.25;99721.13;10280801;28;20054;-69
2022/09/03 18:01:10;;;;;;;32.53;6.65;;;;;;;28.74;55.81;99717.88;10278888;28;20047;-70
2022/09/03 18:06:33;;;;;;;36.08;5.68;;;;;;;28.72;55.62;99736.50;10274726;28;20035;-69
2022/09/03 18:11:36;;;;;;;32.10;6.80;;;;;;;28.23;55.30;99663.09;10267613;28;20078;-69
2022/09/03 18:16:46;;;;;;;52.08;8.40;;;;;;;28.29;55.66;99695.78;10275331;28;20496;-69
2022/09/03 20:11:41;;;;;;;34.75;5.72;;;;;;;26.23;58.33;99650.66;10293660;28;20499;-70
2022/09/03 20:17:06;;;;;;;46.33;6.28;;;;;;;26.35;58.77;99672.84;10294183;28;20047;-69
2022/09/03 20:22:10;;;;;;;38.33;6.55;;;;;;;26.25;58.78;99661.28;10293257;28;20047;-69
2022/09/03 20:27:30;;;;;;;31.48;5.35;;;;;;;26.17;59.64;99666.28;10293294;28;20384;-69
2022/09/03 20:33:02;;;;;;;20.20;4.63;;;;;;;25.57;59.97;99566.94;10295767;28;20116;-70
2022/09/03 20:38:18;;;;;;;21.40;5.13;;;;;;;25.77;60.61;99601.31;10296576;28;20043;-69
2022/09/03 20:43:56;;;;;;;18.05;4.47;;;;;;;25.98;60.71;99632.69;10296267;28;20391;-69
2022/09/03 20:49:03;;;;;;;11.73;3.53;;;;;;;25.79;60.97;99618.97;10275451;28;20138;-69
2022/09/03 20:54:24;;;;;;;18.10;4.65;;;;;;;25.71;62.38;99631.28;10295730;28;20412;-69
2022/09/03 20:59:47;;;;;;;14.10;4.47;;;;;;;25.14;62.43;99545.84;10296200;28;20434;-70
2022/09/03 21:04:58;;;;;;;17.52;4.28;;;;;;;25.55;61.92;99613.47;10296596;28;20131;-70
2022/09/03 21:10:28;;;;;;;19.17;4.35;;;;;;;25.43;64.71;99594.00;10293842;28;20043;-69
2022/09/03 21:15:47;;;;;;;14.73;4.45;;;;;;;25.29;64.20;99582.97;10295360;28;20047;-70
2022/09/03 21:20:55;;;;;;;13.85;4.22;;;;;;;25.18;64.67;99586.84;10295614;28;20581;-70
2022/09/03 21:26:28;;;;;;;12.60;4.38;;;;;;;25.11;66.56;99573.56;10295623;28;20038;-70
2022/09/03 21:32:01;;;;;;;14.00;4.35;;;;;;;25.04;68.33;99589.38;10294485;28;20058;-70
2022/09/03 21:37:04;;;;;;;19.73;4.90;;;;;;;24.45;67.98;99500.66;10290631;28;20134;-70
2022/09/03 21:42:35;;;;;;;10.83;4.70;;;;;;;24.89;70.22;99576.69;10294547;28;20138;-70
2022/09/03 21:47:43;;;;;;;11.00;4.63;;;;;;;24.62;71.22;99546.41;10294377;28;20125;-70
2022/09/03 21:53:05;;;;;;;29.08;4.70;;;;;;;24.58;72.83;99557.84;10294173;28;20093;-69
2022/09/03 21:58:06;;;;;;;15.35;5.05;;;;;;;24.47;71.45;99548.16;10293940;28;20196;-70
2022/09/03 22:03:09;;;;;;;12.45;4.80;;;;;;;24.42;72.62;99545.44;10293869;28;20049;-69
2022/09/03 22:08:20;;;;;;;19.07;5.13;;;;;;;24.40;74.01;99536.72;10294419;28;20606;-69
2022/09/03 22:13:24;;;;;;;16.30;5.10;;;;;;;24.50;73.16;99544.88;10293500;28;20468;-70
2022/09/03 22:18:29;;;;;;;;;;;;;;;24.56;72.37;99532.91;10293019;28;20038;-69
2022/09/03 22:24:06;;;;;;;11.93;4.95;;;;;;;24.34;77.63;99533.22;10291916;28;19918;-69
2022/09/03 22:29:18;;;;;;;17.30;5.53;;;;;;;24.29;77.44;99532.44;10292574;28;20482;-69
2022/09/03 22:34:51;;;;;;;16.93;5.20;;;;;;;24.43;77.87;99543.53;10292859;28;20051;-70
2022/09/03 22:40:01;;;;;;;11.85;4.30;;;;;;;23.91;76.95;99475.09;10292629;28;20049;-70
2022/09/03 22:45:07;;;;;;;11.27;5.25;;;;;;;24.18;79.48;99533.59;10292011;28;20402;-69
2022/09/03 22:50:11;;;;;;;13.32;4.63;;;;;;;24.22;77.84;99540.06;10291739;28;20081;-70
2022/09/03 22:55:24;;;;;;;;;;;;;;;24.36;76.20;99557.38;10292378;28;20062;-70
2022/09/03 23:00:28;;;;;;;16.38;5.68;;;;;;;24.09;77.83;99584.91;10291330;28;19924;-69
2022/09/03 23:05:50;;;;;;;15.43;5.32;;;;;;;24.12;81.40;99612.28;10291010;28;20051;-70
2022/09/03 23:10:55;;;;;;;10.35;4.68;;;;;;;24.15;80.67;99624.50;10251655;28;20048;-70
2022/09/03 23:16:03;;;;;;;16.25;5.10;;;;;;;23.63;80.69;99553.25;10250568;29;20039;-70
2022/09/03 23:21:14;;;;;;;12.45;5.45;;;;;;;24.00;81.57;99605.53;10251572;28;20098;-70
2022/09/03 23:26:48;;;;;;;20.42;5.90;;;;;;;24.01;83.66;99604.44;10252157;28;20055;-70
2022/09/03 23:31:49;;;;;;;13.65;5.85;;;;;;;23.15;81.13;99484.16;10251560;28;20517;-70
2022/09/03 23:37:09;;;;;;;18.77;6.05;;;;;;;23.42;84.29;99546.19;10256318;28;20195;-70
2022/09/03 23:42:24;;;;;;;21.42;6.15;;;;;;;23.80;83.86;99642.44;10259766;28;20047;-70
2022/09/03 23:47:37;;;;;;;43.15;7.10;;;;;;;23.72;84.52;99629.44;10258335;28;20062;-70
2022/09/03 23:52:44;;;;;;;21.17;6.28;;;;;;;23.65;85.86;99620.72;10259351;28;20134;-70
2022/09/03 23:58:03;;;;;;;16.70;6.60;;;;;;;23.61;86.94;99650.28;10258004;28;20075;-70
